sensor_id;sensor_type;location;lat;lon;timestamp;pressure;altitude;pressure_sealevel;temperature;humidity
33506;BME280;19843;51.040;13.782;2023-03-14T00:00:14;98273.09;;;12.11;100.00
33506;BME280;19843;51.040;13.782;2023-03-14T00:02:41;98294.22;;;11.98;100.00
33506;BME280;19843;51.040;13.782;2023-03-14T00:05:10;98275.25;;;11.99;100.00
33506;BME280;19843;51.040;13.782;2023-03-14T00:07:38;98263.31;;;11.94;100.00
33506;BME280;19843;51.040;13.782;2023-03-14T00:10:07;98266.84;;;11.94;100.00
33506;BME280;19843;51.040;13.782;2023-03-14T00:12:35;98252.56;;;11.94;100.00
33506;BME280;19843;51.040;13.782;2023-03-14T00:15:03;98239.78;;;11.87;100.00
33506;BME280;19843;51.040;13.782;2023-03-14T00:17:33;98216.31;;;11.89;100.00
33506;BME280;19843;51.040;13.782;2023-03-14T00:20:00;98205.03;;;11.86;100.00
33506;BME280;19843;51.040;13.782;2023-03-14T00:22:35;98199.47;;;11.79;100.00
33506;BME280;19843;51.040;13.782;2023-03-14T00:25:03;98196.63;;;11.81;100.00
33506;BME280;19843;51.040;13.782;2023-03-14T00:27:31;98203.84;;;11.80;100.00
33506;BME280;19843;51.040;13.782;2023-03-14T00:29:59;98210.91;;;11.81;100.00
33506;BME280;19843;51.040;13.782;2023-03-14T00:32:26;98210.88;;;11.73;100.00
33506;BME280;19843;51.040;13.782;2023-03-14T00:34:54;98206.88;;;11.77;100.00
33506;BME280;19843;51.040;13.782;2023-03-14T00:37:21;98207.84;;;11.76;100.00
33506;BME280;19843;51.040;13.782;2023-03-14T00:39:50;98217.44;;;11.79;100.00
33506;BME280;19843;51.040;13.782;2023-03-14T00:42:18;98226.16;;;11.73;100.00
33506;BME280;19843;51.040;13.782;2023-03-14T00:44:45;98250.25;;;11.64;100.00
33506;BME280;19843;51.040;13.782;2023-03-14T00:47:12;98244.75;;;11.66;100.00
33506;BME280;19843;51.040;13.782;2023-03-14T00:49:40;98227.31;;;11.70;100.00
33506;BME280;19843;51.040;13.782;2023-03-14T00:52:09;98232.66;;;11.62;100.00
33506;BME280;19843;51.040;13.782;2023-03-14T00:54:36;98237.03;;;11.63;100.00
33506;BME280;19843;51.040;13.782;2023-03-14T00:57:05;98242.69;;;11.60;100.00
33506;BME280;19843;51.040;13.782;2023-03-14T00:59:33;98242.88;;;11.66;100.00
33506;BME280;19843;51.040;13.782;2023-03-14T01:02:00;98243.56;;;11.68;100.00
33506;BME280;19843;51.040;13.782;2023-03-14T01:04:27;98255.53;;;11.74;100.00
33506;BME280;19843;51.040;13.782;2023-03-14T01:06:56;98255.31;;;11.67;100.00
33506;BME280;19843;51.040;13.782;2023-03-14T01:09:23;98253.13;;;11.71;100.00
33506;BME280;19843;51.040;13.782;2023-03-14T01:11:51;98247.28;;;11.67;100.00
33506;BME280;19843;51.040;13.782;2023-03-14T01:14:19;98239.72;;;11.71;100.00
33506;BME280;19843;51.040;13.782;2023-03-14T01:16:47;98256.16;;;11.68;100.00
33506;BME280;19843;51.040;13.782;2023-03-14T01:19:14;98244.41;;;11.69;100.00
33506;BME280;19843;51.040;13.782;2023-03-14T01:21:41;98232.66;;;11.62;100.00
33506;BME280;19843;51.040;13.782;2023-03-14T01:24:10;98216.06;;;11.66;100.00
33506;BME280;19843;51.040;13.782;2023-03-14T01:26:37;98220.94;;;11.71;100.00
33506;BME280;19843;51.040;13.782;2023-03-14T01:29:05;98216.38;;;11.71;99.49
33506;BME280;19843;51.040;13.782;2023-03-14T01:31:33;98223.63;;;11.71;99.69
33506;BME280;19843;51.040;13.782;2023-03-14T01:34:01;98229.47;;;11.66;99.50
33506;BME280;19843;51.040;13.782;2023-03-14T01:36:28;98233.22;;;11.82;98.89
33506;BME280;19843;51.040;13.782;2023-03-14T01:38:57;98233.38;;;11.80;98.17
33506;BME280;19843;51.040;13.782;2023-03-14T01:41:25;98250.53;;;11.87;98.09
33506;BME280;19843;51.040;13.782;2023-03-14T01:43:52;98238.94;;;11.79;98.53
33506;BME280;19843;51.040;13.782;2023-03-14T01:46:22;98238.75;;;11.80;98.51
33506;BME280;19843;51.040;13.782;2023-03-14T01:48:53;98235.56;;;11.85;98.19
33506;BME280;19843;51.040;13.782;2023-03-14T01:51:24;98227.34;;;11.86;97.61
33506;BME280;19843;51.040;13.782;2023-03-14T01:53:52;98215.59;;;11.79;97.58
33506;BME280;19843;51.040;13.782;2023-03-14T01:56:22;98202.50;;;11.84;97.54
33506;BME280;19843;51.040;13.782;2023-03-14T01:58:50;98205.88;;;11.86;97.48
33506;BME280;19843;51.040;13.782;2023-03-14T02:01:18;98208.03;;;11.75;97.78
33506;BME280;19843;51.040;13.782;2023-03-14T02:03:48;98213.88;;;11.70;98.14
33506;BME280;19843;51.040;13.782;2023-03-14T02:06:19;98210.19;;;11.71;97.87
33506;BME280;19843;51.040;13.782;2023-03-14T02:08:47;98210.19;;;11.71;97.35
33506;BME280;19843;51.040;13.782;2023-03-14T02:11:15;98204.31;;;11.67;97.47
33506;BME280;19843;51.040;13.782;2023-03-14T02:13:43;98203.47;;;11.59;97.36
33506;BME280;19843;51.040;13.782;2023-03-14T02:16:11;98199.47;;;11.79;96.38
33506;BME280;19843;51.040;13.782;2023-03-14T02:18:38;98198.78;;;11.69;96.52
33506;BME280;19843;51.040;13.782;2023-03-14T02:21:08;98200.09;;;11.57;97.28
33506;BME280;19843;51.040;13.782;2023-03-14T02:23:41;98191.31;;;11.38;99.09
33506;BME280;19843;51.040;13.782;2023-03-14T02:26:14;98198.97;;;11.33;99.42
33506;BME280;19843;51.040;13.782;2023-03-14T02:28:45;98190.34;;;11.47;97.97
33506;BME280;19843;51.040;13.782;2023-03-14T02:31:12;98200.00;;;11.32;98.31
33506;BME280;19843;51.040;13.782;2023-03-14T02:33:39;98194.44;;;11.25;98.10
33506;BME280;19843;51.040;13.782;2023-03-14T02:36:07;98193.75;;;11.23;98.34
33506;BME280;19843;51.040;13.782;2023-03-14T02:38:38;98186.38;;;11.25;98.00
33506;BME280;19843;51.040;13.782;2023-03-14T02:41:07;98182.63;;;11.10;98.58
33506;BME280;19843;51.040;13.782;2023-03-14T02:43:34;98195.59;;;11.23;97.67
33506;BME280;19843;51.040;13.782;2023-03-14T02:46:03;98204.28;;;11.17;97.67
33506;BME280;19843;51.040;13.782;2023-03-14T02:48:33;98198.50;;;11.03;97.89
33506;BME280;19843;51.040;13.782;2023-03-14T02:51:01;98198.31;;;10.97;98.25
33506;BME280;19843;51.040;13.782;2023-03-14T02:53:30;98200.53;;;11.01;98.10
33506;BME280;19843;51.040;13.782;2023-03-14T02:55:57;98198.28;;;10.89;98.14
33506;BME280;19843;51.040;13.782;2023-03-14T02:58:25;98195.25;;;10.92;97.10
33506;BME280;19843;51.040;13.782;2023-03-14T03:00:52;98207.50;;;10.94;97.20
33506;BME280;19843;51.040;13.782;2023-03-14T03:03:21;98197.00;;;11.01;97.44
33506;BME280;19843;51.040;13.782;2023-03-14T03:05:49;98194.38;;;11.09;96.36
33506;BME280;19843;51.040;13.782;2023-03-14T03:08:17;98178.63;;;11.14;95.55
33506;BME280;19843;51.040;13.782;2023-03-14T03:10:44;98179.84;;;11.28;92.74
33506;BME280;19843;51.040;13.782;2023-03-14T03:13:12;98160.94;;;11.29;92.03
33506;BME280;19843;51.040;13.782;2023-03-14T03:15:39;98160.28;;;11.36;91.37
33506;BME280;19843;51.040;13.782;2023-03-14T03:18:07;98163.94;;;11.35;92.01
33506;BME280;19843;51.040;13.782;2023-03-14T03:20:36;98156.47;;;11.04;93.19
33506;BME280;19843;51.040;13.782;2023-03-14T03:23:03;98169.47;;;11.25;90.79
33506;BME280;19843;51.040;13.782;2023-03-14T03:25:31;98168.00;;;11.39;90.21
33506;BME280;19843;51.040;13.782;2023-03-14T03:27:58;98163.00;;;11.52;87.66
33506;BME280;19843;51.040;13.782;2023-03-14T03:30:26;98172.25;;;11.58;87.26
33506;BME280;19843;51.040;13.782;2023-03-14T03:32:54;98170.22;;;11.52;87.87
33506;BME280;19843;51.040;13.782;2023-03-14T03:35:21;98176.09;;;11.55;87.72
33506;BME280;19843;51.040;13.782;2023-03-14T03:37:50;98181.94;;;11.42;87.55
33506;BME280;19843;51.040;13.782;2023-03-14T03:40:17;98179.47;;;11.57;85.47
33506;BME280;19843;51.040;13.782;2023-03-14T03:42:44;98187.81;;;11.46;86.84
33506;BME280;19843;51.040;13.782;2023-03-14T03:45:12;98192.78;;;11.33;89.00
33506;BME280;19843;51.040;13.782;2023-03-14T03:47:39;98187.31;;;11.42;88.52
33506;BME280;19843;51.040;13.782;2023-03-14T03:50:07;98183.94;;;11.40;87.39
33506;BME280;19843;51.040;13.782;2023-03-14T03:52:34;98187.41;;;11.33;87.80
33506;BME280;19843;51.040;13.782;2023-03-14T03:55:03;98176.00;;;11.31;88.43
33506;BME280;19843;51.040;13.782;2023-03-14T03:57:31;98182.81;;;11.17;88.78
33506;BME280;19843;51.040;13.782;2023-03-14T03:59:58;98173.72;;;11.01;90.05
33506;BME280;19843;51.040;13.782;2023-03-14T04:02:25;98172.16;;;10.91;91.26
33506;BME280;19843;51.040;13.782;2023-03-14T04:04:53;98174.97;;;10.89;91.29
33506;BME280;19843;51.040;13.782;2023-03-14T04:07:20;98173.19;;;10.98;90.27
33506;BME280;19843;51.040;13.782;2023-03-14T04:09:48;98168.31;;;10.93;89.86
33506;BME280;19843;51.040;13.782;2023-03-14T04:12:16;98167.19;;;10.70;91.71
33506;BME280;19843;51.040;13.782;2023-03-14T04:14:44;98173.56;;;10.51;93.84
33506;BME280;19843;51.040;13.782;2023-03-14T04:17:12;98171.50;;;10.44;94.30
33506;BME280;19843;51.040;13.782;2023-03-14T04:19:39;98177.00;;;10.61;93.83
33506;BME280;19843;51.040;13.782;2023-03-14T04:22:06;98182.75;;;10.48;94.56
33506;BME280;19843;51.040;13.782;2023-03-14T04:24:34;98171.72;;;10.51;93.47
33506;BME280;19843;51.040;13.782;2023-03-14T04:27:01;98174.16;;;10.62;92.21
33506;BME280;19843;51.040;13.782;2023-03-14T04:29:29;98175.13;;;10.87;90.29
33506;BME280;19843;51.040;13.782;2023-03-14T04:31:57;98179.38;;;10.90;89.18
33506;BME280;19843;51.040;13.782;2023-03-14T04:34:24;98172.72;;;11.02;88.50
33506;BME280;19843;51.040;13.782;2023-03-14T04:36:51;98160.47;;;11.00;86.18
33506;BME280;19843;51.040;13.782;2023-03-14T04:39:19;98154.78;;;11.45;83.16
33506;BME280;19843;51.040;13.782;2023-03-14T04:41:46;98156.13;;;11.49;83.03
33506;BME280;19843;51.040;13.782;2023-03-14T04:44:13;98149.44;;;11.54;81.54
33506;BME280;19843;51.040;13.782;2023-03-14T04:46:42;98154.81;;;11.54;81.91
33506;BME280;19843;51.040;13.782;2023-03-14T04:49:09;98157.66;;;11.52;82.19
33506;BME280;19843;51.040;13.782;2023-03-14T04:51:36;98152.25;;;11.44;83.14
33506;BME280;19843;51.040;13.782;2023-03-14T04:54:04;98154.13;;;11.60;79.81
33506;BME280;19843;51.040;13.782;2023-03-14T04:56:31;98148.94;;;11.58;80.64
33506;BME280;19843;51.040;13.782;2023-03-14T04:58:58;98145.03;;;11.44;80.97
33506;BME280;19843;51.040;13.782;2023-03-14T05:01:25;98150.44;;;11.53;80.46
33506;BME280;19843;51.040;13.782;2023-03-14T05:03:54;98163.16;;;11.50;80.54
33506;BME280;19843;51.040;13.782;2023-03-14T05:06:21;98146.41;;;11.65;78.37
33506;BME280;19843;51.040;13.782;2023-03-14T05:08:49;98130.00;;;11.68;78.97
33506;BME280;19843;51.040;13.782;2023-03-14T05:11:16;98140.06;;;11.66;78.46
33506;BME280;19843;51.040;13.782;2023-03-14T05:13:44;98135.34;;;11.60;79.65
33506;BME280;19843;51.040;13.782;2023-03-14T05:16:11;98123.44;;;11.62;78.59
33506;BME280;19843;51.040;13.782;2023-03-14T05:18:38;98134.00;;;11.56;78.95
33506;BME280;19843;51.040;13.782;2023-03-14T05:21:07;98142.91;;;11.64;77.73
33506;BME280;19843;51.040;13.782;2023-03-14T05:23:34;98143.41;;;11.60;78.23
33506;BME280;19843;51.040;13.782;2023-03-14T05:26:02;98147.63;;;11.70;77.18
33506;BME280;19843;51.040;13.782;2023-03-14T05:28:29;98151.13;;;11.63;77.59
33506;BME280;19843;51.040;13.782;2023-03-14T05:30:56;98150.97;;;11.73;77.07
33506;BME280;19843;51.040;13.782;2023-03-14T05:33:24;98151.44;;;11.60;76.77
33506;BME280;19843;51.040;13.782;2023-03-14T05:35:51;98146.28;;;11.75;76.41
33506;BME280;19843;51.040;13.782;2023-03-14T05:38:20;98132.38;;;11.79;75.53
33506;BME280;19843;51.040;13.782;2023-03-14T05:40:48;98127.63;;;11.65;77.07
33506;BME280;19843;51.040;13.782;2023-03-14T05:43:15;98135.38;;;11.76;75.25
33506;BME280;19843;51.040;13.782;2023-03-14T05:45:42;98123.47;;;11.79;75.26
33506;BME280;19843;51.040;13.782;2023-03-14T05:48:10;98117.78;;;11.82;75.01
33506;BME280;19843;51.040;13.782;2023-03-14T05:50:37;98115.75;;;11.84;74.73
33506;BME280;19843;51.040;13.782;2023-03-14T05:53:04;98117.78;;;11.82;75.24
33506;BME280;19843;51.040;13.782;2023-03-14T05:55:33;98115.41;;;11.70;75.59
33506;BME280;19843;51.040;13.782;2023-03-14T05:58:01;98128.69;;;11.72;75.20
33506;BME280;19843;51.040;13.782;2023-03-14T06:00:28;98110.38;;;11.84;74.60
33506;BME280;19843;51.040;13.782;2023-03-14T06:02:55;98118.25;;;11.69;74.77
33506;BME280;19843;51.040;13.782;2023-03-14T06:05:23;98113.75;;;11.69;75.18
33506;BME280;19843;51.040;13.782;2023-03-14T06:07:50;98113.22;;;11.82;74.78
33506;BME280;19843;51.040;13.782;2023-03-14T06:10:17;98111.56;;;11.81;74.60
33506;BME280;19843;51.040;13.782;2023-03-14T06:12:46;98113.56;;;11.79;74.96
33506;BME280;19843;51.040;13.782;2023-03-14T06:15:13;98104.50;;;11.80;75.21
33506;BME280;19843;51.040;13.782;2023-03-14T06:17:41;98121.94;;;11.76;75.09
33506;BME280;19843;51.040;13.782;2023-03-14T06:20:08;98125.31;;;11.78;75.53
33506;BME280;19843;51.040;13.782;2023-03-14T06:22:36;98125.16;;;11.80;74.46
33506;BME280;19843;51.040;13.782;2023-03-14T06:25:04;98132.06;;;11.90;74.27
33506;BME280;19843;51.040;13.782;2023-03-14T06:27:31;98144.28;;;11.85;75.37
33506;BME280;19843;51.040;13.782;2023-03-14T06:30:00;98142.75;;;11.82;75.12
33506;BME280;19843;51.040;13.782;2023-03-14T06:32:27;98146.97;;;11.85;75.05
33506;BME280;19843;51.040;13.782;2023-03-14T06:34:55;98150.88;;;11.90;74.49
33506;BME280;19843;51.040;13.782;2023-03-14T06:37:23;98149.53;;;11.95;74.26
33506;BME280;19843;51.040;13.782;2023-03-14T06:39:50;98163.78;;;12.03;73.14
33506;BME280;19843;51.040;13.782;2023-03-14T06:42:17;98163.97;;;12.10;73.10
33506;BME280;19843;51.040;13.782;2023-03-14T06:44:45;98181.44;;;12.14;73.67
33506;BME280;19843;51.040;13.782;2023-03-14T06:47:14;98177.41;;;12.02;75.32
33506;BME280;19843;51.040;13.782;2023-03-14T06:49:41;98175.38;;;12.12;74.68
33506;BME280;19843;51.040;13.782;2023-03-14T06:52:08;98170.19;;;12.27;73.94
33506;BME280;19843;51.040;13.782;2023-03-14T06:54:35;98169.03;;;12.38;73.19
33506;BME280;19843;51.040;13.782;2023-03-14T06:57:03;98165.31;;;12.39;72.63
33506;BME280;19843;51.040;13.782;2023-03-14T06:59:30;98172.00;;;12.51;71.98
33506;BME280;19843;51.040;13.782;2023-03-14T07:01:57;98170.34;;;12.50;71.56
33506;BME280;19843;51.040;13.782;2023-03-14T07:04:26;98172.53;;;12.54;70.78
33506;BME280;19843;51.040;13.782;2023-03-14T07:06:53;98164.47;;;12.54;71.66
33506;BME280;19843;51.040;13.782;2023-03-14T07:09:21;98169.16;;;12.52;72.54
33506;BME280;19843;51.040;13.782;2023-03-14T07:11:48;98162.09;;;12.60;72.58
33506;BME280;19843;51.040;13.782;2023-03-14T07:14:15;98164.97;;;12.50;72.60
33506;BME280;19843;51.040;13.782;2023-03-14T07:16:44;98170.16;;;12.60;72.28
33506;BME280;19843;51.040;13.782;2023-03-14T07:19:11;98168.66;;;12.57;72.27
33506;BME280;19843;51.040;13.782;2023-03-14T07:21:39;98179.91;;;12.52;72.20
33506;BME280;19843;51.040;13.782;2023-03-14T07:24:07;98184.78;;;12.57;71.58
33506;BME280;19843;51.040;13.782;2023-03-14T07:26:34;98180.44;;;12.56;71.76
33506;BME280;19843;51.040;13.782;2023-03-14T07:29:02;98178.41;;;12.58;72.31
33506;BME280;19843;51.040;13.782;2023-03-14T07:31:29;98179.72;;;12.62;71.69
33506;BME280;19843;51.040;13.782;2023-03-14T07:33:57;98184.28;;;12.62;71.78
33506;BME280;19843;51.040;13.782;2023-03-14T07:36:25;98186.47;;;12.58;72.41
33506;BME280;19843;51.040;13.782;2023-03-14T07:38:53;98174.38;;;12.54;71.88
33506;BME280;19843;51.040;13.782;2023-03-14T07:41:21;98174.69;;;12.59;72.30
33506;BME280;19843;51.040;13.782;2023-03-14T07:43:49;98174.53;;;12.61;72.60
33506;BME280;19843;51.040;13.782;2023-03-14T07:46:16;98177.03;;;12.62;72.80
33506;BME280;19843;51.040;13.782;2023-03-14T07:48:44;98180.88;;;12.76;71.98
33506;BME280;19843;51.040;13.782;2023-03-14T07:51:12;98184.59;;;12.75;72.42
33506;BME280;19843;51.040;13.782;2023-03-14T07:53:39;98188.44;;;12.81;72.85
33506;BME280;19843;51.040;13.782;2023-03-14T07:56:08;98177.31;;;12.92;72.07
33506;BME280;19843;51.040;13.782;2023-03-14T07:58:35;98173.63;;;12.93;71.50
33506;BME280;19843;51.040;13.782;2023-03-14T08:01:03;98175.66;;;12.91;71.12
33506;BME280;19843;51.040;13.782;2023-03-14T08:03:30;98168.25;;;12.85;71.35
33506;BME280;19843;51.040;13.782;2023-03-14T08:05:58;98164.56;;;12.86;71.58
33506;BME280;19843;51.040;13.782;2023-03-14T08:08:25;98175.81;;;12.89;71.83
33506;BME280;19843;51.040;13.782;2023-03-14T08:10:52;98167.09;;;12.79;72.96
33506;BME280;19843;51.040;13.782;2023-03-14T08:13:21;98153.09;;;13.00;70.09
33506;BME280;19843;51.040;13.782;2023-03-14T08:15:49;98157.94;;;13.05;70.70
33506;BME280;19843;51.040;13.782;2023-03-14T08:18:17;98162.16;;;13.07;70.17
33506;BME280;19843;51.040;13.782;2023-03-14T08:20:44;98173.59;;;13.01;70.65
33506;BME280;19843;51.040;13.782;2023-03-14T08:23:11;98173.09;;;12.98;71.05
33506;BME280;19843;51.040;13.782;2023-03-14T08:25:39;98178.47;;;13.06;71.06
33506;BME280;19843;51.040;13.782;2023-03-14T08:28:06;98177.44;;;13.15;70.06
33506;BME280;19843;51.040;13.782;2023-03-14T08:30:34;98170.81;;;13.26;69.42
33506;BME280;19843;51.040;13.782;2023-03-14T08:33:02;98171.81;;;13.33;67.76
33506;BME280;19843;51.040;13.782;2023-03-14T08:35:30;98175.13;;;13.51;68.85
33506;BME280;19843;51.040;13.782;2023-03-14T08:37:57;98175.06;;;13.60;68.16
33506;BME280;19843;51.040;13.782;2023-03-14T08:40:25;98166.19;;;13.82;66.77
33506;BME280;19843;51.040;13.782;2023-03-14T08:42:52;98169.31;;;13.94;65.54
33506;BME280;19843;51.040;13.782;2023-03-14T08:45:19;98167.56;;;14.01;64.66
33506;BME280;19843;51.040;13.782;2023-03-14T08:47:48;98169.78;;;13.97;63.92
33506;BME280;19843;51.040;13.782;2023-03-14T08:50:16;98165.19;;;14.06;62.83
33506;BME280;19843;51.040;13.782;2023-03-14T08:52:43;98162.53;;;13.98;62.29
33506;BME280;19843;51.040;13.782;2023-03-14T08:55:11;98145.00;;;14.25;62.21
33506;BME280;19843;51.040;13.782;2023-03-14T08:57:38;98151.75;;;14.21;60.70
33506;BME280;19843;51.040;13.782;2023-03-14T09:00:06;98157.16;;;14.21;61.87
33506;BME280;19843;51.040;13.782;2023-03-14T09:02:36;98162.13;;;14.09;61.58
33506;BME280;19843;51.040;13.782;2023-03-14T09:05:06;98168.56;;;14.08;61.90
33506;BME280;19843;51.040;13.782;2023-03-14T09:07:33;98162.91;;;14.18;61.92
33506;BME280;19843;51.040;13.782;2023-03-14T09:10:00;98158.06;;;13.90;62.57
33506;BME280;19843;51.040;13.782;2023-03-14T09:12:28;98154.97;;;14.02;62.75
33506;BME280;19843;51.040;13.782;2023-03-14T09:14:55;98159.72;;;13.91;61.95
33506;BME280;19843;51.040;13.782;2023-03-14T09:17:22;98158.34;;;13.95;62.22
33506;BME280;19843;51.040;13.782;2023-03-14T09:19:50;98155.00;;;14.16;62.32
33506;BME280;19843;51.040;13.782;2023-03-14T09:22:18;98149.94;;;14.36;61.86
33506;BME280;19843;51.040;13.782;2023-03-14T09:24:46;98157.00;;;14.37;62.35
33506;BME280;19843;51.040;13.782;2023-03-14T09:27:13;98160.66;;;14.45;61.75
33506;BME280;19843;51.040;13.782;2023-03-14T09:29:41;98161.28;;;14.55;63.18
33506;BME280;19843;51.040;13.782;2023-03-14T09:32:08;98156.53;;;14.57;62.70
33506;BME280;19843;51.040;13.782;2023-03-14T09:34:35;98154.78;;;14.41;62.72
33506;BME280;19843;51.040;13.782;2023-03-14T09:37:03;98169.47;;;14.38;62.81
33506;BME280;19843;51.040;13.782;2023-03-14T09:39:31;98151.53;;;14.31;62.32
33506;BME280;19843;51.040;13.782;2023-03-14T09:42:00;98173.03;;;14.16;62.90
33506;BME280;19843;51.040;13.782;2023-03-14T09:44:30;98162.75;;;14.19;62.95
33506;BME280;19843;51.040;13.782;2023-03-14T09:46:58;98169.66;;;14.14;63.18
33506;BME280;19843;51.040;13.782;2023-03-14T09:49:28;98167.63;;;14.16;65.16
33506;BME280;19843;51.040;13.782;2023-03-14T09:51:58;98177.09;;;14.12;62.89
33506;BME280;19843;51.040;13.782;2023-03-14T09:54:34;98173.94;;;14.08;63.34
33506;BME280;19843;51.040;13.782;2023-03-14T09:57:02;98176.59;;;13.85;62.38
33506;BME280;19843;51.040;13.782;2023-03-14T09:59:30;98170.44;;;13.76;63.02
33506;BME280;19843;51.040;13.782;2023-03-14T10:01:59;98180.75;;;13.65;63.91
33506;BME280;19843;51.040;13.782;2023-03-14T10:04:27;98171.56;;;13.82;62.88
33506;BME280;19843;51.040;13.782;2023-03-14T10:06:56;98175.28;;;13.81;62.84
33506;BME280;19843;51.040;13.782;2023-03-14T10:09:23;98164.28;;;13.91;62.35
33506;BME280;19843;51.040;13.782;2023-03-14T10:11:54;98166.69;;;13.86;62.84
33506;BME280;19843;51.040;13.782;2023-03-14T10:14:30;98173.25;;;13.83;62.37
33506;BME280;19843;51.040;13.782;2023-03-14T10:17:04;98176.38;;;13.72;61.70
33506;BME280;19843;51.040;13.782;2023-03-14T10:19:32;98180.16;;;13.86;61.72
33506;BME280;19843;51.040;13.782;2023-03-14T10:22:02;98184.59;;;13.70;61.84
33506;BME280;19843;51.040;13.782;2023-03-14T10:24:30;98186.28;;;13.71;61.81
33506;BME280;19843;51.040;13.782;2023-03-14T10:26:59;98178.66;;;13.83;62.14
33506;BME280;19843;51.040;13.782;2023-03-14T10:29:28;98182.72;;;13.79;62.41
33506;BME280;19843;51.040;13.782;2023-03-14T10:31:57;98175.63;;;13.78;62.25
33506;BME280;19843;51.040;13.782;2023-03-14T10:34:27;98165.66;;;13.87;63.21
33506;BME280;19843;51.040;13.782;2023-03-14T10:36:56;98167.81;;;13.91;62.65
33506;BME280;19843;51.040;13.782;2023-03-14T10:39:25;98167.75;;;13.99;61.90
33506;BME280;19843;51.040;13.782;2023-03-14T10:41:53;98161.84;;;14.04;62.55
33506;BME280;19843;51.040;13.782;2023-03-14T10:44:26;98168.19;;;14.11;60.93
33506;BME280;19843;51.040;13.782;2023-03-14T10:46:58;98164.78;;;14.17;60.85
33506;BME280;19843;51.040;13.782;2023-03-14T10:49:27;98167.06;;;14.06;62.43
33506;BME280;19843;51.040;13.782;2023-03-14T10:51:55;98164.28;;;14.14;60.89
33506;BME280;19843;51.040;13.782;2023-03-14T10:54:29;98163.69;;;14.04;61.21
33506;BME280;19843;51.040;13.782;2023-03-14T10:56:58;98165.31;;;14.13;61.33
33506;BME280;19843;51.040;13.782;2023-03-14T10:59:29;98168.22;;;14.03;61.21
33506;BME280;19843;51.040;13.782;2023-03-14T11:01:58;98172.91;;;14.09;62.00
33506;BME280;19843;51.040;13.782;2023-03-14T11:04:35;98168.84;;;14.13;60.62
33506;BME280;19843;51.040;13.782;2023-03-14T11:07:08;98169.22;;;14.10;60.56
33506;BME280;19843;51.040;13.782;2023-03-14T11:09:38;98171.25;;;14.08;60.67
33506;BME280;19843;51.040;13.782;2023-03-14T11:12:26;98175.06;;;14.14;60.75
33506;BME280;19843;51.040;13.782;2023-03-14T11:15:01;98173.31;;;14.21;61.19
33506;BME280;19843;51.040;13.782;2023-03-14T11:17:30;98173.25;;;14.29;61.21
33506;BME280;19843;51.040;13.782;2023-03-14T11:20:04;98179.75;;;14.20;60.54
33506;BME280;19843;51.040;13.782;2023-03-14T11:22:41;98166.09;;;14.22;61.23
33506;BME280;19843;51.040;13.782;2023-03-14T11:25:15;98156.53;;;14.34;61.06
33506;BME280;19843;51.040;13.782;2023-03-14T11:27:46;98155.06;;;14.46;60.16
33506;BME280;19843;51.040;13.782;2023-03-14T11:30:18;98153.25;;;14.47;60.02
33506;BME280;19843;51.040;13.782;2023-03-14T11:32:46;98157.56;;;14.56;59.74
33506;BME280;19843;51.040;13.782;2023-03-14T11:35:19;98149.28;;;14.57;59.20
33506;BME280;19843;51.040;13.782;2023-03-14T11:37:48;98149.78;;;14.91;59.22
33506;BME280;19843;51.040;13.782;2023-03-14T11:40:19;98148.84;;;15.13;58.63
33506;BME280;19843;51.040;13.782;2023-03-14T11:42:48;98144.28;;;15.29;57.43
33506;BME280;19843;51.040;13.782;2023-03-14T11:45:22;98141.09;;;15.40;57.40
33506;BME280;19843;51.040;13.782;2023-03-14T11:47:53;98148.00;;;15.42;56.07
33506;BME280;19843;51.040;13.782;2023-03-14T11:50:23;98134.56;;;15.49;56.64
33506;BME280;19843;51.040;13.782;2023-03-14T11:52:52;98137.19;;;15.28;57.59
33506;BME280;19843;51.040;13.782;2023-03-14T11:55:22;98127.66;;;15.10;57.41
33506;BME280;19843;51.040;13.782;2023-03-14T11:57:53;98131.16;;;14.96;58.04
33506;BME280;19843;51.040;13.782;2023-03-14T12:00:24;98130.88;;;14.76;58.00
33506;BME280;19843;51.040;13.782;2023-03-14T12:02:53;98129.19;;;14.60;58.30
33506;BME280;19843;51.040;13.782;2023-03-14T12:05:36;98126.34;;;14.53;57.87
33506;BME280;19843;51.040;13.782;2023-03-14T12:08:27;98121.59;;;14.40;58.52
33506;BME280;19843;51.040;13.782;2023-03-14T12:11:00;98110.69;;;14.57;57.47
33506;BME280;19843;51.040;13.782;2023-03-14T12:13:31;98108.03;;;14.72;57.32
33506;BME280;19843;51.040;13.782;2023-03-14T12:16:03;98110.34;;;14.90;58.95
33506;BME280;19843;51.040;13.782;2023-03-14T12:18:32;98100.44;;;15.12;57.46
33506;BME280;19843;51.040;13.782;2023-03-14T12:21:00;98104.81;;;15.28;57.00
33506;BME280;19843;51.040;13.782;2023-03-14T12:23:33;98097.84;;;15.55;55.66
33506;BME280;19843;51.040;13.782;2023-03-14T12:26:12;98096.44;;;15.74;55.06
33506;BME280;19843;51.040;13.782;2023-03-14T12:28:42;98089.38;;;15.94;55.93
33506;BME280;19843;51.040;13.782;2023-03-14T12:34:02;98090.53;;;16.63;54.93
33506;BME280;19843;51.040;13.782;2023-03-14T12:39:27;98094.13;;;16.42;53.95
33506;BME280;19843;51.040;13.782;2023-03-14T12:42:02;98107.63;;;15.92;55.69
33506;BME280;19843;51.040;13.782;2023-03-14T12:44:44;98102.28;;;15.77;57.11
33506;BME280;19843;51.040;13.782;2023-03-14T12:50:14;98099.81;;;15.10;59.33
33506;BME280;19843;51.040;13.782;2023-03-14T12:52:44;98097.34;;;15.44;58.82
33506;BME280;19843;51.040;13.782;2023-03-14T12:55:15;98084.47;;;15.83;57.21
33506;BME280;19843;51.040;13.782;2023-03-14T12:57:47;98070.34;;;16.31;56.80
33506;BME280;19843;51.040;13.782;2023-03-14T13:00:18;98073.97;;;16.44;55.36
33506;BME280;19843;51.040;13.782;2023-03-14T13:02:47;98077.44;;;16.38;54.72